sensor_id;sensor_type;location;lat;lon;timestamp;P1;durP1;ratioP1;P2;durP2;ratioP2
8213;SDS011;4148;47.974;7.824;2022-08-01T00:00:54;2.93;;;2.10;;
8213;SDS011;4148;47.974;7.824;2022-08-01T00:03:21;4.20;;;2.00;;
8213;SDS011;4148;47.974;7.824;2022-08-01T00:05:49;3.00;;;2.10;;
8213;SDS011;4148;47.974;7.824;2022-08-01T00:08:17;4.00;;;2.20;;
8213;SDS011;4148;47.974;7.824;2022-08-01T00:10:45;2.97;;;1.80;;
8213;SDS011;4148;47.974;7.824;2022-08-01T00:13:13;4.53;;;1.90;;
8213;SDS011;4148;47.974;7.824;2022-08-01T00:15:41;2.80;;;1.90;;
8213;SDS011;4148;47.974;7.824;2022-08-01T00:18:21;2.70;;;1.97;;
8213;SDS011;4148;47.974;7.824;2022-08-01T00:20:48;2.47;;;2.10;;
8213;SDS011;4148;47.974;7.824;2022-08-01T00:23:16;2.33;;;2.10;;
8213;SDS011;4148;47.974;7.824;2022-08-01T00:25:44;2.50;;;1.70;;
8213;SDS011;4148;47.974;7.824;2022-08-01T00:28:12;4.17;;;2.30;;
8213;SDS011;4148;47.974;7.824;2022-08-01T00:30:40;3.03;;;2.17;;
8213;SDS011;4148;47.974;7.824;2022-08-01T00:33:08;2.70;;;2.20;;
8213;SDS011;4148;47.974;7.824;2022-08-01T00:35:37;2.60;;;2.10;;
8213;SDS011;4148;47.974;7.824;2022-08-01T00:38:05;3.37;;;2.10;;
8213;SDS011;4148;47.974;7.824;2022-08-01T00:40:33;2.57;;;2.27;;
8213;SDS011;4148;47.974;7.824;2022-08-01T00:43:01;2.50;;;1.93;;
8213;SDS011;4148;47.974;7.824;2022-08-01T00:45:29;2.93;;;2.17;;
8213;SDS011;4148;47.974;7.824;2022-08-01T00:47:57;2.73;;;2.07;;
8213;SDS011;4148;47.974;7.824;2022-08-01T00:50:25;2.60;;;2.20;;
8213;SDS011;4148;47.974;7.824;2022-08-01T00:52:54;4.23;;;2.00;;
8213;SDS011;4148;47.974;7.824;2022-08-01T00:55:24;4.23;;;2.27;;
8213;SDS011;4148;47.974;7.824;2022-08-01T00:57:53;2.20;;;2.00;;
8213;SDS011;4148;47.974;7.824;2022-08-01T01:00:32;2.30;;;2.10;;
8213;SDS011;4148;47.974;7.824;2022-08-01T01:03:19;3.03;;;2.30;;
8213;SDS011;4148;47.974;7.824;2022-08-01T01:05:56;3.50;;;2.73;;
8213;SDS011;4148;47.974;7.824;2022-08-01T01:08:37;3.60;;;2.47;;
8213;SDS011;4148;47.974;7.824;2022-08-01T01:11:10;4.50;;;2.40;;
8213;SDS011;4148;47.974;7.824;2022-08-01T01:13:46;2.63;;;2.37;;
8213;SDS011;4148;47.974;7.824;2022-08-01T01:16:19;2.47;;;2.27;;
8213;SDS011;4148;47.974;7.824;2022-08-01T01:18:49;2.97;;;2.63;;
8213;SDS011;4148;47.974;7.824;2022-08-01T01:21:31;3.77;;;2.40;;
8213;SDS011;4148;47.974;7.824;2022-08-01T01:24:17;3.67;;;2.70;;
8213;SDS011;4148;47.974;7.824;2022-08-01T01:26:57;3.03;;;2.50;;
8213;SDS011;4148;47.974;7.824;2022-08-01T01:29:34;4.63;;;2.40;;
8213;SDS011;4148;47.974;7.824;2022-08-01T01:32:26;3.40;;;2.60;;
8213;SDS011;4148;47.974;7.824;2022-08-01T01:35:00;2.80;;;2.10;;
8213;SDS011;4148;47.974;7.824;2022-08-01T01:37:31;2.73;;;2.33;;
8213;SDS011;4148;47.974;7.824;2022-08-01T01:40:01;6.60;;;2.57;;
8213;SDS011;4148;47.974;7.824;2022-08-01T01:42:31;3.97;;;2.53;;
8213;SDS011;4148;47.974;7.824;2022-08-01T01:45:02;2.60;;;2.40;;
8213;SDS011;4148;47.974;7.824;2022-08-01T01:47:31;3.03;;;2.50;;
8213;SDS011;4148;47.974;7.824;2022-08-01T01:50:00;2.57;;;2.37;;
8213;SDS011;4148;47.974;7.824;2022-08-01T01:52:31;3.70;;;2.77;;
8213;SDS011;4148;47.974;7.824;2022-08-01T01:54:59;5.20;;;2.30;;
8213;SDS011;4148;47.974;7.824;2022-08-01T01:57:31;3.10;;;2.80;;
8213;SDS011;4148;47.974;7.824;2022-08-01T02:00:04;4.17;;;2.90;;
8213;SDS011;4148;47.974;7.824;2022-08-01T02:02:33;3.00;;;2.80;;
8213;SDS011;4148;47.974;7.824;2022-08-01T02:05:03;4.00;;;3.23;;
8213;SDS011;4148;47.974;7.824;2022-08-01T02:07:33;5.27;;;2.90;;
8213;SDS011;4148;47.974;7.824;2022-08-01T02:10:03;5.70;;;2.50;;
8213;SDS011;4148;47.974;7.824;2022-08-01T02:12:33;3.07;;;2.70;;
8213;SDS011;4148;47.974;7.824;2022-08-01T02:15:06;3.40;;;3.10;;
8213;SDS011;4148;47.974;7.824;2022-08-01T02:17:37;4.00;;;2.90;;
8213;SDS011;4148;47.974;7.824;2022-08-01T02:20:10;3.67;;;3.37;;
8213;SDS011;4148;47.974;7.824;2022-08-01T02:22:40;3.90;;;3.33;;
8213;SDS011;4148;47.974;7.824;2022-08-01T02:25:10;4.90;;;3.20;;
8213;SDS011;4148;47.974;7.824;2022-08-01T02:27:45;4.10;;;3.43;;
8213;SDS011;4148;47.974;7.824;2022-08-01T02:30:19;4.13;;;3.13;;
8213;SDS011;4148;47.974;7.824;2022-08-01T02:32:49;4.40;;;3.03;;
8213;SDS011;4148;47.974;7.824;2022-08-01T02:35:21;4.00;;;3.20;;
8213;SDS011;4148;47.974;7.824;2022-08-01T02:37:52;5.53;;;3.87;;
8213;SDS011;4148;47.974;7.824;2022-08-01T02:40:22;3.17;;;2.87;;
8213;SDS011;4148;47.974;7.824;2022-08-01T02:42:50;4.90;;;3.20;;
8213;SDS011;4148;47.974;7.824;2022-08-01T02:45:24;7.80;;;3.20;;
8213;SDS011;4148;47.974;7.824;2022-08-01T02:47:53;3.50;;;3.20;;
8213;SDS011;4148;47.974;7.824;2022-08-01T02:50:26;3.27;;;2.93;;
8213;SDS011;4148;47.974;7.824;2022-08-01T02:52:55;3.50;;;3.20;;
8213;SDS011;4148;47.974;7.824;2022-08-01T02:55:25;4.53;;;3.20;;
8213;SDS011;4148;47.974;7.824;2022-08-01T02:57:54;3.47;;;3.13;;
8213;SDS011;4148;47.974;7.824;2022-08-01T03:00:27;3.93;;;3.40;;
8213;SDS011;4148;47.974;7.824;2022-08-01T03:02:56;4.60;;;3.40;;
8213;SDS011;4148;47.974;7.824;2022-08-01T03:05:26;4.70;;;4.00;;
8213;SDS011;4148;47.974;7.824;2022-08-01T03:07:55;3.60;;;3.30;;
8213;SDS011;4148;47.974;7.824;2022-08-01T03:10:29;4.40;;;4.00;;
8213;SDS011;4148;47.974;7.824;2022-08-01T03:12:58;4.73;;;3.50;;
8213;SDS011;4148;47.974;7.824;2022-08-01T03:15:30;3.30;;;3.00;;
8213;SDS011;4148;47.974;7.824;2022-08-01T03:18:00;4.00;;;3.60;;
8213;SDS011;4148;47.974;7.824;2022-08-01T03:20:30;4.13;;;3.50;;
8213;SDS011;4148;47.974;7.824;2022-08-01T03:23:00;4.80;;;4.30;;
8213;SDS011;4148;47.974;7.824;2022-08-01T03:25:31;4.57;;;3.87;;
8213;SDS011;4148;47.974;7.824;2022-08-01T03:28:01;5.43;;;4.40;;
8213;SDS011;4148;47.974;7.824;2022-08-01T03:30:33;5.90;;;3.30;;
8213;SDS011;4148;47.974;7.824;2022-08-01T03:33:03;4.70;;;4.20;;
8213;SDS011;4148;47.974;7.824;2022-08-01T03:35:33;4.60;;;4.10;;
8213;SDS011;4148;47.974;7.824;2022-08-01T03:38:04;3.73;;;3.43;;
8213;SDS011;4148;47.974;7.824;2022-08-01T03:40:43;4.23;;;3.83;;
8213;SDS011;4148;47.974;7.824;2022-08-01T03:43:15;4.30;;;3.90;;
8213;SDS011;4148;47.974;7.824;2022-08-01T03:45:48;5.10;;;3.70;;
8213;SDS011;4148;47.974;7.824;2022-08-01T03:48:19;7.33;;;4.20;;
8213;SDS011;4148;47.974;7.824;2022-08-01T03:50:51;3.63;;;3.33;;
8213;SDS011;4148;47.974;7.824;2022-08-01T03:53:20;5.40;;;4.17;;
8213;SDS011;4148;47.974;7.824;2022-08-01T03:55:51;4.30;;;3.90;;
8213;SDS011;4148;47.974;7.824;2022-08-01T03:58:21;4.80;;;4.30;;
8213;SDS011;4148;47.974;7.824;2022-08-01T04:00:51;3.83;;;3.23;;
8213;SDS011;4148;47.974;7.824;2022-08-01T04:03:19;5.80;;;4.60;;
8213;SDS011;4148;47.974;7.824;2022-08-01T04:05:47;4.00;;;3.60;;
8213;SDS011;4148;47.974;7.824;2022-08-01T04:08:15;4.00;;;3.60;;
8213;SDS011;4148;47.974;7.824;2022-08-01T04:10:43;4.73;;;3.70;;
8213;SDS011;4148;47.974;7.824;2022-08-01T04:13:12;7.80;;;4.30;;
8213;SDS011;4148;47.974;7.824;2022-08-01T04:15:40;4.50;;;4.10;;
8213;SDS011;4148;47.974;7.824;2022-08-01T04:18:09;4.53;;;4.03;;
8213;SDS011;4148;47.974;7.824;2022-08-01T04:20:37;5.20;;;4.40;;
8213;SDS011;4148;47.974;7.824;2022-08-01T04:23:05;4.20;;;3.80;;
8213;SDS011;4148;47.974;7.824;2022-08-01T04:25:35;4.63;;;3.97;;
8213;SDS011;4148;47.974;7.824;2022-08-01T04:28:05;7.40;;;3.90;;
8213;SDS011;4148;47.974;7.824;2022-08-01T04:30:37;4.30;;;3.90;;
8213;SDS011;4148;47.974;7.824;2022-08-01T04:33:06;4.53;;;3.50;;
8213;SDS011;4148;47.974;7.824;2022-08-01T04:35:38;4.27;;;3.50;;
8213;SDS011;4148;47.974;7.824;2022-08-01T04:38:28;4.30;;;3.67;;
8213;SDS011;4148;47.974;7.824;2022-08-01T04:40:57;4.10;;;3.70;;
8213;SDS011;4148;47.974;7.824;2022-08-01T04:43:34;5.00;;;4.50;;
8213;SDS011;4148;47.974;7.824;2022-08-01T04:46:03;4.40;;;3.97;;
8213;SDS011;4148;47.974;7.824;2022-08-01T04:48:34;4.53;;;3.90;;
8213;SDS011;4148;47.974;7.824;2022-08-01T04:51:04;5.30;;;4.37;;
8213;SDS011;4148;47.974;7.824;2022-08-01T04:53:38;4.60;;;3.60;;
8213;SDS011;4148;47.974;7.824;2022-08-01T04:56:06;7.73;;;4.57;;
8213;SDS011;4148;47.974;7.824;2022-08-01T04:58:34;7.07;;;4.13;;
8213;SDS011;4148;47.974;7.824;2022-08-01T05:01:01;4.93;;;4.43;;
8213;SDS011;4148;47.974;7.824;2022-08-01T05:03:29;5.97;;;4.70;;
8213;SDS011;4148;47.974;7.824;2022-08-01T05:06:05;5.80;;;4.30;;
8213;SDS011;4148;47.974;7.824;2022-08-01T05:08:33;4.73;;;3.90;;
8213;SDS011;4148;47.974;7.824;2022-08-01T05:11:02;5.00;;;4.50;;
8213;SDS011;4148;47.974;7.824;2022-08-01T05:13:30;5.20;;;4.70;;
8213;SDS011;4148;47.974;7.824;2022-08-01T05:15:58;5.17;;;4.23;;
8213;SDS011;4148;47.974;7.824;2022-08-01T05:18:29;4.87;;;4.37;;
8213;SDS011;4148;47.974;7.824;2022-08-01T05:20:57;6.73;;;4.10;;
8213;SDS011;4148;47.974;7.824;2022-08-01T05:23:27;5.70;;;5.10;;
8213;SDS011;4148;47.974;7.824;2022-08-01T05:26:08;5.87;;;4.60;;
8213;SDS011;4148;47.974;7.824;2022-08-01T05:28:39;5.70;;;4.13;;
8213;SDS011;4148;47.974;7.824;2022-08-01T05:31:07;4.90;;;4.30;;
8213;SDS011;4148;47.974;7.824;2022-08-01T05:33:35;7.70;;;5.00;;
8213;SDS011;4148;47.974;7.824;2022-08-01T05:36:04;6.03;;;4.30;;
8213;SDS011;4148;47.974;7.824;2022-08-01T05:38:33;4.50;;;4.10;;
8213;SDS011;4148;47.974;7.824;2022-08-01T05:41:01;5.50;;;4.70;;
8213;SDS011;4148;47.974;7.824;2022-08-01T05:43:29;4.70;;;4.17;;
8213;SDS011;4148;47.974;7.824;2022-08-01T05:45:57;4.73;;;4.23;;
8213;SDS011;4148;47.974;7.824;2022-08-01T05:48:25;7.83;;;4.17;;
8213;SDS011;4148;47.974;7.824;2022-08-01T05:50:53;6.00;;;4.40;;
8213;SDS011;4148;47.974;7.824;2022-08-01T05:53:24;4.53;;;3.93;;
8213;SDS011;4148;47.974;7.824;2022-08-01T05:55:53;4.97;;;3.80;;
8213;SDS011;4148;47.974;7.824;2022-08-01T05:58:21;5.90;;;4.13;;
8213;SDS011;4148;47.974;7.824;2022-08-01T06:00:49;4.97;;;4.30;;
8213;SDS011;4148;47.974;7.824;2022-08-01T06:03:18;5.90;;;4.30;;
8213;SDS011;4148;47.974;7.824;2022-08-01T06:05:46;4.53;;;4.10;;
8213;SDS011;4148;47.974;7.824;2022-08-01T06:08:14;4.73;;;4.17;;
8213;SDS011;4148;47.974;7.824;2022-08-01T06:10:42;5.20;;;4.70;;
8213;SDS011;4148;47.974;7.824;2022-08-01T06:13:11;5.53;;;3.80;;
8213;SDS011;4148;47.974;7.824;2022-08-01T06:15:39;5.50;;;3.67;;
8213;SDS011;4148;47.974;7.824;2022-08-01T06:18:07;5.03;;;4.30;;
8213;SDS011;4148;47.974;7.824;2022-08-01T06:20:35;5.20;;;4.70;;
8213;SDS011;4148;47.974;7.824;2022-08-01T06:23:03;4.33;;;3.93;;
8213;SDS011;4148;47.974;7.824;2022-08-01T06:25:51;4.23;;;3.83;;
8213;SDS011;4148;47.974;7.824;2022-08-01T06:28:21;5.10;;;4.53;;
8213;SDS011;4148;47.974;7.824;2022-08-01T06:30:49;5.67;;;4.27;;
8213;SDS011;4148;47.974;7.824;2022-08-01T06:33:17;5.13;;;4.00;;
8213;SDS011;4148;47.974;7.824;2022-08-01T06:35:45;5.70;;;4.40;;
8213;SDS011;4148;47.974;7.824;2022-08-01T06:38:13;4.40;;;4.00;;
8213;SDS011;4148;47.974;7.824;2022-08-01T06:40:41;10.40;;;4.60;;
8213;SDS011;4148;47.974;7.824;2022-08-01T06:43:09;7.00;;;4.87;;
8213;SDS011;4148;47.974;7.824;2022-08-01T06:45:39;5.33;;;4.80;;
8213;SDS011;4148;47.974;7.824;2022-08-01T06:48:07;7.50;;;4.40;;
8213;SDS011;4148;47.974;7.824;2022-08-01T06:50:35;5.03;;;4.53;;
8213;SDS011;4148;47.974;7.824;2022-08-01T06:53:03;5.03;;;4.40;;
8213;SDS011;4148;47.974;7.824;2022-08-01T06:55:31;5.13;;;4.63;;
8213;SDS011;4148;47.974;7.824;2022-08-01T06:57:59;4.70;;;4.20;;
8213;SDS011;4148;47.974;7.824;2022-08-01T07:00:27;4.50;;;4.10;;
8213;SDS011;4148;47.974;7.824;2022-08-01T07:02:56;4.43;;;4.03;;
8213;SDS011;4148;47.974;7.824;2022-08-01T07:05:26;4.87;;;4.20;;
8213;SDS011;4148;47.974;7.824;2022-08-01T07:07:54;5.80;;;4.50;;
8213;SDS011;4148;47.974;7.824;2022-08-01T07:10:22;8.40;;;5.30;;
8213;SDS011;4148;47.974;7.824;2022-08-01T07:12:50;5.20;;;4.60;;
8213;SDS011;4148;47.974;7.824;2022-08-01T07:15:17;5.90;;;5.30;;
8213;SDS011;4148;47.974;7.824;2022-08-01T07:17:48;6.17;;;4.53;;
8213;SDS011;4148;47.974;7.824;2022-08-01T07:20:17;5.70;;;4.67;;
8213;SDS011;4148;47.974;7.824;2022-08-01T07:22:45;6.80;;;5.40;;
8213;SDS011;4148;47.974;7.824;2022-08-01T07:25:15;5.63;;;5.10;;
8213;SDS011;4148;47.974;7.824;2022-08-01T07:27:43;4.93;;;4.47;;
8213;SDS011;4148;47.974;7.824;2022-08-01T07:30:12;7.00;;;4.70;;
8213;SDS011;4148;47.974;7.824;2022-08-01T07:32:41;7.50;;;5.20;;
8213;SDS011;4148;47.974;7.824;2022-08-01T07:35:09;6.70;;;5.10;;
8213;SDS011;4148;47.974;7.824;2022-08-01T07:37:38;4.63;;;4.13;;
8213;SDS011;4148;47.974;7.824;2022-08-01T07:40:14;6.83;;;4.77;;
8213;SDS011;4148;47.974;7.824;2022-08-01T07:42:44;5.00;;;4.50;;
8213;SDS011;4148;47.974;7.824;2022-08-01T07:45:12;5.43;;;4.70;;
8213;SDS011;4148;47.974;7.824;2022-08-01T07:47:40;4.53;;;4.13;;
8213;SDS011;4148;47.974;7.824;2022-08-01T07:50:08;8.20;;;4.80;;
8213;SDS011;4148;47.974;7.824;2022-08-01T07:52:36;4.90;;;4.20;;
8213;SDS011;4148;47.974;7.824;2022-08-01T07:55:06;4.77;;;4.27;;
8213;SDS011;4148;47.974;7.824;2022-08-01T07:57:35;5.53;;;4.33;;
8213;SDS011;4148;47.974;7.824;2022-08-01T08:00:04;4.37;;;3.97;;
8213;SDS011;4148;47.974;7.824;2022-08-01T08:02:34;5.30;;;4.80;;
8213;SDS011;4148;47.974;7.824;2022-08-01T08:05:02;5.37;;;4.83;;
8213;SDS011;4148;47.974;7.824;2022-08-01T08:07:31;4.70;;;4.20;;
8213;SDS011;4148;47.974;7.824;2022-08-01T08:10:00;4.77;;;3.93;;
8213;SDS011;4148;47.974;7.824;2022-08-01T08:12:29;4.83;;;4.37;;
8213;SDS011;4148;47.974;7.824;2022-08-01T08:14:57;4.77;;;4.33;;
8213;SDS011;4148;47.974;7.824;2022-08-01T08:17:27;5.10;;;4.60;;
8213;SDS011;4148;47.974;7.824;2022-08-01T08:20:01;5.57;;;5.07;;
8213;SDS011;4148;47.974;7.824;2022-08-01T08:22:34;5.00;;;4.50;;
8213;SDS011;4148;47.974;7.824;2022-08-01T08:25:04;6.23;;;3.97;;
8213;SDS011;4148;47.974;7.824;2022-08-01T08:27:33;4.73;;;4.33;;
8213;SDS011;4148;47.974;7.824;2022-08-01T08:30:03;5.07;;;4.57;;
8213;SDS011;4148;47.974;7.824;2022-08-01T08:32:33;7.27;;;5.10;;
8213;SDS011;4148;47.974;7.824;2022-08-01T08:35:01;5.10;;;4.60;;
8213;SDS011;4148;47.974;7.824;2022-08-01T08:37:32;5.50;;;5.00;;
8213;SDS011;4148;47.974;7.824;2022-08-01T08:40:10;8.43;;;4.70;;
8213;SDS011;4148;47.974;7.824;2022-08-01T08:42:39;5.20;;;4.67;;
8213;SDS011;4148;47.974;7.824;2022-08-01T08:45:08;6.60;;;4.20;;
8213;SDS011;4148;47.974;7.824;2022-08-01T08:47:38;5.10;;;4.40;;
8213;SDS011;4148;47.974;7.824;2022-08-01T08:50:08;5.50;;;4.60;;
8213;SDS011;4148;47.974;7.824;2022-08-01T08:52:37;4.67;;;4.27;;
8213;SDS011;4148;47.974;7.824;2022-08-01T08:55:07;4.33;;;3.93;;
8213;SDS011;4148;47.974;7.824;2022-08-01T08:57:40;5.60;;;4.60;;
8213;SDS011;4148;47.974;7.824;2022-08-01T09:00:11;5.47;;;4.00;;
8213;SDS011;4148;47.974;7.824;2022-08-01T09:02:42;7.07;;;4.13;;
8213;SDS011;4148;47.974;7.824;2022-08-01T09:05:13;5.20;;;4.70;;
8213;SDS011;4148;47.974;7.824;2022-08-01T09:07:45;5.30;;;4.60;;
8213;SDS011;4148;47.974;7.824;2022-08-01T09:10:13;5.13;;;4.40;;
8213;SDS011;4148;47.974;7.824;2022-08-01T09:15:38;5.10;;;4.60;;
8213;SDS011;4148;47.974;7.824;2022-08-01T09:18:07;4.77;;;4.37;;
8213;SDS011;4148;47.974;7.824;2022-08-01T09:20:35;4.90;;;4.07;;
8213;SDS011;4148;47.974;7.824;2022-08-01T09:23:03;5.00;;;4.60;;
8213;SDS011;4148;47.974;7.824;2022-08-01T09:25:31;6.40;;;4.13;;
8213;SDS011;4148;47.974;7.824;2022-08-01T09:28:27;4.90;;;4.13;;
8213;SDS011;4148;47.974;7.824;2022-08-01T09:30:56;6.50;;;4.10;;
8213;SDS011;4148;47.974;7.824;2022-08-01T09:33:24;4.20;;;3.80;;
8213;SDS011;4148;47.974;7.824;2022-08-01T09:35:55;4.40;;;4.10;;
8213;SDS011;4148;47.974;7.824;2022-08-01T09:38:25;4.37;;;4.07;;
8213;SDS011;4148;47.974;7.824;2022-08-01T09:40:57;4.80;;;3.70;;
8213;SDS011;4148;47.974;7.824;2022-08-01T09:43:29;3.80;;;3.50;;
8213;SDS011;4148;47.974;7.824;2022-08-01T09:45:58;4.50;;;3.20;;
8213;SDS011;4148;47.974;7.824;2022-08-01T09:48:27;4.10;;;3.80;;
8213;SDS011;4148;47.974;7.824;2022-08-01T09:50:56;5.10;;;3.93;;
8213;SDS011;4148;47.974;7.824;2022-08-01T09:53:39;5.33;;;4.13;;
8213;SDS011;4148;47.974;7.824;2022-08-01T09:56:16;4.03;;;3.43;;
8213;SDS011;4148;47.974;7.824;2022-08-01T09:58:53;4.73;;;3.90;;
8213;SDS011;4148;47.974;7.824;2022-08-01T10:01:28;3.77;;;3.47;;
8213;SDS011;4148;47.974;7.824;2022-08-01T10:04:08;4.63;;;4.23;;
8213;SDS011;4148;47.974;7.824;2022-08-01T10:06:38;4.13;;;3.73;;
8213;SDS011;4148;47.974;7.824;2022-08-01T10:09:08;6.07;;;3.77;;
8213;SDS011;4148;47.974;7.824;2022-08-01T10:11:39;4.70;;;4.13;;
8213;SDS011;4148;47.974;7.824;2022-08-01T10:14:11;3.40;;;3.10;;
8213;SDS011;4148;47.974;7.824;2022-08-01T10:16:43;3.90;;;3.60;;
8213;SDS011;4148;47.974;7.824;2022-08-01T10:19:19;5.67;;;4.03;;
8213;SDS011;4148;47.974;7.824;2022-08-01T10:21:49;4.20;;;3.80;;
8213;SDS011;4148;47.974;7.824;2022-08-01T10:24:25;3.80;;;3.50;;
8213;SDS011;4148;47.974;7.824;2022-08-01T10:26:56;4.93;;;4.43;;
8213;SDS011;4148;47.974;7.824;2022-08-01T10:29:41;4.97;;;3.90;;
8213;SDS011;4148;47.974;7.824;2022-08-01T10:32:33;3.77;;;3.47;;
8213;SDS011;4148;47.974;7.824;2022-08-01T10:35:05;3.50;;;3.20;;
8213;SDS011;4148;47.974;7.824;2022-08-01T10:37:40;4.37;;;3.97;;
8213;SDS011;4148;47.974;7.824;2022-08-01T10:40:18;4.13;;;3.73;;
8213;SDS011;4148;47.974;7.824;2022-08-01T10:42:56;3.77;;;3.47;;
8213;SDS011;4148;47.974;7.824;2022-08-01T10:45:26;4.97;;;4.10;;
8213;SDS011;4148;47.974;7.824;2022-08-01T10:47:57;3.83;;;3.40;;
8213;SDS011;4148;47.974;7.824;2022-08-01T10:50:31;3.90;;;3.50;;
8213;SDS011;4148;47.974;7.824;2022-08-01T10:53:12;3.30;;;2.87;;
8213;SDS011;4148;47.974;7.824;2022-08-01T10:55:49;3.40;;;3.10;;
8213;SDS011;4148;47.974;7.824;2022-08-01T10:58:21;3.67;;;3.30;;
8213;SDS011;4148;47.974;7.824;2022-08-01T11:04:07;3.17;;;2.77;;
8213;SDS011;4148;47.974;7.824;2022-08-01T11:06:53;3.30;;;2.77;;
8213;SDS011;4148;47.974;7.824;2022-08-01T11:09:37;2.87;;;2.67;;
8213;SDS011;4148;47.974;7.824;2022-08-01T11:12:08;9.10;;;3.17;;
8213;SDS011;4148;47.974;7.824;2022-08-01T11:17:58;3.67;;;3.30;;
8213;SDS011;4148;47.974;7.824;2022-08-01T11:20:27;3.77;;;3.03;;
8213;SDS011;4148;47.974;7.824;2022-08-01T11:26:08;3.20;;;2.90;;
8213;SDS011;4148;47.974;7.824;2022-08-01T11:28:43;2.87;;;2.67;;
8213;SDS011;4148;47.974;7.824;2022-08-01T11:31:33;3.53;;;3.23;;
8213;SDS011;4148;47.974;7.824;2022-08-01T11:34:05;3.77;;;3.47;;
8213;SDS011;4148;47.974;7.824;2022-08-01T11:36:33;3.50;;;3.10;;
8213;SDS011;4148;47.974;7.824;2022-08-01T11:39:21;3.50;;;2.80;;
8213;SDS011;4148;47.974;7.824;2022-08-01T11:41:50;4.00;;;3.40;;
8213;SDS011;4148;47.974;7.824;2022-08-01T11:44:20;3.40;;;3.10;;
8213;SDS011;4148;47.974;7.824;2022-08-01T11:47:00;4.30;;;3.50;;
8213;SDS011;4148;47.974;7.824;2022-08-01T11:49:46;3.87;;;3.40;;
8213;SDS011;4148;47.974;7.824;2022-08-01T11:52:17;4.20;;;3.37;;
8213;SDS011;4148;47.974;7.824;2022-08-01T11:54:51;3.63;;;3.03;;
8213;SDS011;4148;47.974;7.824;2022-08-01T11:57:22;3.70;;;3.30;;
8213;SDS011;4148;47.974;7.824;2022-08-01T12:00:01;4.80;;;3.73;;
8213;SDS011;4148;47.974;7.824;2022-08-01T12:02:34;5.00;;;3.77;;
8213;SDS011;4148;47.974;7.824;2022-08-01T12:05:04;3.93;;;3.50;;
8213;SDS011;4148;47.974;7.824;2022-08-01T12:07:38;3.73;;;3.30;;
8213;SDS011;4148;47.974;7.824;2022-08-01T12:10:07;4.20;;;3.20;;
8213;SDS011;4148;47.974;7.824;2022-08-01T12:12:37;5.20;;;3.50;;
8213;SDS011;4148;47.974;7.824;2022-08-01T12:15:11;5.20;;;3.47;;
8213;SDS011;4148;47.974;7.824;2022-08-01T12:17:40;4.20;;;3.80;;
8213;SDS011;4148;47.974;7.824;2022-08-01T12:20:26;4.30;;;3.50;;
8213;SDS011;4148;47.974;7.824;2022-08-01T12:22:57;3.77;;;3.43;;
8213;SDS011;4148;47.974;7.824;2022-08-01T12:25:27;3.50;;;3.20;;
8213;SDS011;4148;47.974;7.824;2022-08-01T12:27:59;3.80;;;3.50;;
8213;SDS011;4148;47.974;7.824;2022-08-01T12:30:27;6.50;;;3.57;;
8213;SDS011;4148;47.974;7.824;2022-08-01T12:32:57;3.83;;;3.13;;
8213;SDS011;4148;47.974;7.824;2022-08-01T12:35:27;6.93;;;3.90;;
8213;SDS011;4148;47.974;7.824;2022-08-01T12:37:57;3.73;;;3.43;;
8213;SDS011;4148;47.974;7.824;2022-08-01T12:40:28;3.33;;;3.03;;
8213;SDS011;4148;47.974;7.824;2022-08-01T12:42:57;4.00;;;3.70;;
8213;SDS011;4148;47.974;7.824;2022-08-01T12:45:28;3.80;;;3.27;;
8213;SDS011;4148;47.974;7.824;2022-08-01T12:48:00;4.03;;;3.73;;
8213;SDS011;4148;47.974;7.824;2022-08-01T12:50:30;3.83;;;3.37;;
8213;SDS011;4148;47.974;7.824;2022-08-01T12:52:59;4.57;;;3.37;;
8213;SDS011;4148;47.974;7.824;2022-08-01T12:55:32;4.03;;;3.63;;
8213;SDS011;4148;47.974;7.824;2022-08-01T12:58:03;4.17;;;3.70;;
8213;SDS011;4148;47.974;7.824;2022-08-01T13:00:41;4.07;;;3.67;;
8213;SDS011;4148;47.974;7.824;2022-08-01T13:03:12;5.90;;;3.30;;
8213;SDS011;4148;47.974;7.824;2022-08-01T13:05:44;4.00;;;3.47;;
8213;SDS011;4148;47.974;7.824;2022-08-01T13:08:13;5.90;;;4.20;;
8213;SDS011;4148;47.974;7.824;2022-08-01T13:10:42;4.20;;;3.90;;
8213;SDS011;4148;47.974;7.824;2022-08-01T13:13:11;4.17;;;3.70;;
8213;SDS011;4148;47.974;7.824;2022-08-01T13:16:02;4.57;;;3.60;;
8213;SDS011;4148;47.974;7.824;2022-08-01T13:18:32;4.50;;;3.67;;
8213;SDS011;4148;47.974;7.824;2022-08-01T13:21:09;4.30;;;3.93;;
8213;SDS011;4148;47.974;7.824;2022-08-01T13:23:37;4.00;;;3.70;;
8213;SDS011;4148;47.974;7.824;2022-08-01T13:26:39;5.20;;;4.50;;
8213;SDS011;4148;47.974;7.824;2022-08-01T13:29:09;4.60;;;3.87;;
8213;SDS011;4148;47.974;7.824;2022-08-01T13:31:38;4.80;;;4.40;;
8213;SDS011;4148;47.974;7.824;2022-08-01T13:34:07;4.33;;;3.80;;
8213;SDS011;4148;47.974;7.824;2022-08-01T13:36:38;3.80;;;3.50;;
8213;SDS011;4148;47.974;7.824;2022-08-01T13:39:14;4.17;;;3.67;;
8213;SDS011;4148;47.974;7.824;2022-08-01T13:41:59;4.73;;;3.80;;
8213;SDS011;4148;47.974;7.824;2022-08-01T13:44:27;4.30;;;3.90;;
8213;SDS011;4148;47.974;7.824;2022-08-01T13:46:55;4.87;;;3.93;;
8213;SDS011;4148;47.974;7.824;2022-08-01T13:49:23;5.57;;;3.77;;
8213;SDS011;4148;47.974;7.824;2022-08-01T13:52:04;5.33;;;3.47;;
8213;SDS011;4148;47.974;7.824;2022-08-01T13:54:33;4.33;;;4.00;;
8213;SDS011;4148;47.974;7.824;2022-08-01T13:57:03;4.13;;;3.73;;
8213;SDS011;4148;47.974;7.824;2022-08-01T13:59:33;4.07;;;3.67;;
8213;SDS011;4148;47.974;7.824;2022-08-01T14:02:01;5.27;;;4.10;;
8213;SDS011;4148;47.974;7.824;2022-08-01T14:04:29;4.70;;;4.30;;
8213;SDS011;4148;47.974;7.824;2022-08-01T14:06:57;4.77;;;4.33;;
8213;SDS011;4148;47.974;7.824;2022-08-01T14:09:33;4.47;;;4.07;;
8213;SDS011;4148;47.974;7.824;2022-08-01T14:12:10;5.07;;;4.20;;
8213;SDS011;4148;47.974;7.824;2022-08-01T14:14:38;4.53;;;4.13;;
8213;SDS011;4148;47.974;7.824;2022-08-01T14:17:08;4.40;;;3.93;;
8213;SDS011;4148;47.974;7.824;2022-08-01T14:19:36;8.30;;;4.90;;
8213;SDS011;4148;47.974;7.824;2022-08-01T14:22:11;5.30;;;4.20;;
8213;SDS011;4148;47.974;7.824;2022-08-01T14:24:40;4.77;;;4.37;;
8213;SDS011;4148;47.974;7.824;2022-08-01T14:27:08;5.00;;;4.60;;
8213;SDS011;4148;47.974;7.824;2022-08-01T14:29:36;5.00;;;4.60;;
8213;SDS011;4148;47.974;7.824;2022-08-01T14:32:23;5.93;;;4.00;;
8213;SDS011;4148;47.974;7.824;2022-08-01T14:34:54;6.03;;;4.50;;
8213;SDS011;4148;47.974;7.824;2022-08-01T14:37:22;5.13;;;4.70;;
8213;SDS011;4148;47.974;7.824;2022-08-01T14:39:56;4.63;;;4.23;;
8213;SDS011;4148;47.974;7.824;2022-08-01T14:42:24;5.43;;;4.17;;
8213;SDS011;4148;47.974;7.824;2022-08-01T14:44:52;4.43;;;4.07;;
8213;SDS011;4148;47.974;7.824;2022-08-01T14:47:20;4.70;;;4.30;;
8213;SDS011;4148;47.974;7.824;2022-08-01T14:49:48;4.40;;;4.10;;
8213;SDS011;4148;47.974;7.824;2022-08-01T14:52:17;5.03;;;4.03;;
8213;SDS011;4148;47.974;7.824;2022-08-01T14:54:45;4.27;;;3.97;;
8213;SDS011;4148;47.974;7.824;2022-08-01T14:57:15;4.50;;;4.10;;
8213;SDS011;4148;47.974;7.824;2022-08-01T14:59:44;4.47;;;4.07;;
8213;SDS011;4148;47.974;7.824;2022-08-01T15:02:12;4.93;;;4.43;;
8213;SDS011;4148;47.974;7.824;2022-08-01T15:04:43;4.93;;;4.40;;
8213;SDS011;4148;47.974;7.824;2022-08-01T15:07:11;4.53;;;4.07;;
8213;SDS011;4148;47.974;7.824;2022-08-01T15:09:39;5.23;;;4.73;;
8213;SDS011;4148;47.974;7.824;2022-08-01T15:12:07;4.60;;;4.20;;
8213;SDS011;4148;47.974;7.824;2022-08-01T15:14:37;4.93;;;4.50;;
8213;SDS011;4148;47.974;7.824;2022-08-01T15:17:14;5.07;;;4.13;;
8213;SDS011;4148;47.974;7.824;2022-08-01T15:19:42;4.47;;;4.00;;
8213;SDS011;4148;47.974;7.824;2022-08-01T15:22:10;10.60;;;4.90;;
8213;SDS011;4148;47.974;7.824;2022-08-01T15:24:38;5.10;;;4.10;;
8213;SDS011;4148;47.974;7.824;2022-08-01T15:27:07;4.40;;;4.00;;
8213;SDS011;4148;47.974;7.824;2022-08-01T15:29:35;6.20;;;4.17;;
8213;SDS011;4148;47.974;7.824;2022-08-01T15:32:04;4.07;;;3.77;;
8213;SDS011;4148;47.974;7.824;2022-08-01T15:34:34;4.80;;;4.40;;
8213;SDS011;4148;47.974;7.824;2022-08-01T15:37:03;14.63;;;5.03;;
8213;SDS011;4148;47.974;7.824;2022-08-01T15:39:31;5.93;;;4.70;;
8213;SDS011;4148;47.974;7.824;2022-08-01T15:42:02;6.07;;;4.27;;
8213;SDS011;4148;47.974;7.824;2022-08-01T15:44:32;6.27;;;4.53;;
8213;SDS011;4148;47.974;7.824;2022-08-01T15:47:00;5.23;;;4.30;;
8213;SDS011;4148;47.974;7.824;2022-08-01T15:49:31;4.30;;;3.80;;
8213;SDS011;4148;47.974;7.824;2022-08-01T15:52:00;6.87;;;4.37;;